createdAt,value
2022-11-30T00:01:54.329Z,101754.34
2022-11-30T00:04:20.724Z,101757.25
2022-11-30T00:06:47.037Z,101752.88
2022-11-30T00:09:13.433Z,101752.03
2022-11-30T00:11:39.780Z,101758.66
2022-11-30T00:14:06.088Z,101758.66
2022-11-30T00:16:32.545Z,101754.91
2022-11-30T00:18:58.915Z,101757.13
2022-11-30T00:21:25.241Z,101762.16
2022-11-30T00:23:51.553Z,101757.66
2022-11-30T00:26:18.269Z,101754.03
2022-11-30T00:28:45.732Z,101766.94
2022-11-30T00:31:12.984Z,101768.34
2022-11-30T00:33:39.341Z,101753.16
2022-11-30T00:36:06.517Z,101758.19
2022-11-30T00:38:32.843Z,101762.59
2022-11-30T00:40:59.803Z,101756.69
2022-11-30T00:43:26.113Z,101756.59
2022-11-30T00:45:52.489Z,101763.94
2022-11-30T00:48:18.847Z,101766.09
2022-11-30T00:50:45.168Z,101766.72
2022-11-30T00:53:11.490Z,101763.09
2022-11-30T00:55:37.808Z,101765.25
2022-11-30T00:58:04.305Z,101769.50
2022-11-30T01:00:30.719Z,101769.50
2022-11-30T01:02:57.036Z,101776.78
2022-11-30T01:05:23.368Z,101773.78
2022-11-30T01:07:49.781Z,101775.38
2022-11-30T01:10:16.128Z,101766.72
2022-11-30T01:12:42.522Z,101779.53
2022-11-30T01:15:09.012Z,101776.00
2022-11-30T01:17:35.325Z,101781.03
2022-11-30T01:20:01.678Z,101773.03
2022-11-30T01:22:28.006Z,101781.03
2022-11-30T01:24:54.339Z,101789.56
2022-11-30T01:27:20.700Z,101779.53
2022-11-30T01:29:47.028Z,101785.81
2022-11-30T01:32:13.365Z,101785.81
2022-11-30T01:34:39.692Z,101782.31
2022-11-30T01:37:07.950Z,101786.47
2022-11-30T01:39:34.278Z,101782.81
2022-11-30T01:42:00.616Z,101784.97
2022-11-30T01:44:27.200Z,101785.59
2022-11-30T01:47:06.178Z,101783.34
2022-11-30T01:49:33.389Z,101783.47
2022-11-30T01:52:00.954Z,101791.88
2022-11-30T01:54:30.012Z,101794.78
2022-11-30T01:56:56.795Z,101790.38
2022-11-30T01:59:23.484Z,101794.03
2022-11-30T02:01:49.963Z,101791.66
2022-11-30T02:04:20.543Z,101787.41
2022-11-30T02:06:47.330Z,101787.50
2022-11-30T02:09:13.640Z,101796.91
2022-11-30T02:11:39.968Z,101796.13
2022-11-30T02:14:22.545Z,101797.66
2022-11-30T02:16:48.793Z,101791.88
2022-11-30T02:19:37.657Z,101790.50
2022-11-30T02:22:07.296Z,101794.16
2022-11-30T02:24:52.271Z,101799.13
2022-11-30T02:27:22.287Z,101791.88
2022-11-30T02:29:56.254Z,101798.41
2022-11-30T02:32:24.490Z,101791.16
2022-11-30T02:34:51.080Z,101797.66
2022-11-30T02:37:17.418Z,101799.03
2022-11-30T02:39:43.795Z,101793.16
2022-11-30T02:42:11.059Z,101794.66
2022-11-30T02:44:37.375Z,101792.41
2022-11-30T02:47:22.601Z,101787.28
2022-11-30T02:49:53.973Z,101787.91
2022-11-30T02:52:21.353Z,101793.06
2022-11-30T02:54:47.972Z,101788.66
2022-11-30T02:57:14.536Z,101797.19
2022-11-30T02:59:40.857Z,101797.19
2022-11-30T03:02:07.560Z,101802.84
2022-11-30T03:04:33.876Z,101804.22
2022-11-30T03:07:00.247Z,101802.84
2022-11-30T03:09:26.564Z,101810.00
2022-11-30T03:11:52.927Z,101814.28
2022-11-30T03:14:19.240Z,101808.50
2022-11-30T03:16:45.573Z,101807.72
2022-11-30T03:19:12.503Z,101793.97
2022-11-30T03:21:38.833Z,101799.63
2022-11-30T03:24:05.290Z,101798.97
2022-11-30T03:26:31.648Z,101798.22
2022-11-30T03:28:57.964Z,101802.50
2022-11-30T03:31:24.312Z,101804.00
2022-11-30T03:33:50.670Z,101806.88
2022-11-30T03:36:17.000Z,101804.00
2022-11-30T03:38:43.339Z,101811.91
2022-11-30T03:41:14.061Z,101809.00
2022-11-30T03:43:40.494Z,101812.75
2022-11-30T03:46:06.878Z,101810.09
2022-11-30T03:48:33.341Z,101814.47
2022-11-30T03:50:59.671Z,101816.72
2022-11-30T03:53:25.997Z,101816.22
2022-11-30T03:55:56.561Z,101819.09
2022-11-30T03:58:22.900Z,101818.44
2022-11-30T04:00:49.227Z,101825.72
2022-11-30T04:03:15.839Z,101828.50
2022-11-30T04:05:42.618Z,101820.59
2022-11-30T04:08:09.034Z,101824.97
2022-11-30T04:10:35.359Z,101828.63
2022-11-30T04:13:01.673Z,101833.72
2022-11-30T04:15:28.005Z,101836.72
2022-11-30T04:17:54.327Z,101832.47
2022-11-30T04:20:20.679Z,101828.19
2022-11-30T04:22:47.009Z,101829.59
2022-11-30T04:25:13.320Z,101838.34
2022-11-30T04:27:39.716Z,101828.19
2022-11-30T04:30:06.478Z,101834.69
2022-11-30T04:32:32.794Z,101838.25
2022-11-30T04:34:59.131Z,101834.69
2022-11-30T04:37:25.456Z,101847.00
2022-11-30T04:39:51.793Z,101844.13
2022-11-30T04:42:18.165Z,101845.72
2022-11-30T04:44:44.708Z,101842.72
2022-11-30T04:47:11.267Z,101849.88
2022-11-30T04:49:37.609Z,101844.22
2022-11-30T04:52:03.910Z,101848.50
2022-11-30T04:54:30.216Z,101854.75
2022-11-30T04:56:56.538Z,101851.25
2022-11-30T04:59:22.843Z,101842.50
2022-11-30T05:01:49.251Z,101851.13
2022-11-30T05:04:15.713Z,101848.25
2022-11-30T05:06:42.156Z,101853.50
2022-11-30T05:09:08.478Z,101848.63
2022-11-30T05:11:34.850Z,101850.75
2022-11-30T05:14:01.174Z,101857.25
2022-11-30T05:16:27.594Z,101858.00
2022-11-30T05:18:53.923Z,101865.28
2022-11-30T05:21:20.257Z,101874.69
2022-11-30T05:23:48.690Z,101871.69
2022-11-30T05:26:15.281Z,101868.03
2022-11-30T05:28:41.605Z,101874.56
2022-11-30T05:31:08.014Z,101879.59
2022-11-30T05:33:34.434Z,101883.31
2022-11-30T05:36:04.541Z,101884.81
2022-11-30T05:38:33.593Z,101884.94
2022-11-30T05:41:00.737Z,101884.19
2022-11-30T05:43:27.144Z,101890.56
2022-11-30T05:45:58.644Z,101894.97
2022-11-30T05:48:24.974Z,101890.56
2022-11-30T05:50:51.302Z,101881.81
2022-11-30T05:53:17.631Z,101881.81
2022-11-30T05:55:44.588Z,101894.38
2022-11-30T05:58:10.892Z,101884.28
2022-11-30T06:00:37.204Z,101894.84
2022-11-30T06:03:03.662Z,101896.16
2022-11-30T06:05:30.073Z,101892.78
2022-11-30T06:07:58.587Z,101901.66
2022-11-30T06:10:25.814Z,101904.88
2022-11-30T06:12:52.144Z,101908.13
2022-11-30T06:15:18.483Z,101906.84
2022-11-30T06:17:44.801Z,101913.88
2022-11-30T06:20:11.198Z,101901.06
2022-11-30T06:22:37.522Z,101917.25
2022-11-30T06:25:04.500Z,101915.72
2022-11-30T06:27:31.574Z,101914.75
2022-11-30T06:29:57.884Z,101920.38
2022-11-30T06:32:24.205Z,101921.03
2022-11-30T06:34:50.525Z,101918.66
2022-11-30T06:37:16.869Z,101922.16
2022-11-30T06:40:05.465Z,101923.44
2022-11-30T06:42:30.724Z,101927.72
2022-11-30T06:44:57.046Z,101928.47
2022-11-30T06:47:23.373Z,101932.22
2022-11-30T06:49:49.683Z,101940.75
2022-11-30T06:52:16.111Z,101931.53
2022-11-30T06:54:42.450Z,101931.41
2022-11-30T06:57:08.759Z,101941.66
2022-11-30T06:59:36.830Z,101933.00
2022-11-30T07:02:08.819Z,101944.28
2022-11-30T07:04:37.081Z,101948.56
2022-11-30T07:07:03.403Z,101945.56
2022-11-30T07:09:29.714Z,101949.81
2022-11-30T07:11:56.056Z,101946.72
2022-11-30T07:14:22.379Z,101951.72
2022-11-30T07:16:48.723Z,101955.38
2022-11-30T07:19:15.072Z,101948.09
2022-11-30T07:21:41.384Z,101958.13
2022-11-30T07:24:26.702Z,101963.88
2022-11-30T07:26:53.026Z,101965.63
2022-11-30T07:29:19.347Z,101969.91
2022-11-30T07:31:48.534Z,101976.91
2022-11-30T07:34:14.904Z,101975.16
2022-11-30T07:36:41.263Z,101976.66
2022-11-30T07:39:07.638Z,101972.28
2022-11-30T07:41:33.970Z,101983.81
2022-11-30T07:44:03.592Z,101980.66
2022-11-30T07:46:31.485Z,101989.56
2022-11-30T07:48:57.820Z,101986.56
2022-11-30T07:51:24.139Z,101978.50
2022-11-30T07:53:50.458Z,101978.38
2022-11-30T07:56:19.628Z,101979.16
2022-11-30T07:58:46.234Z,101979.91
2022-11-30T08:01:13.346Z,101984.78
2022-11-30T08:03:39.758Z,101973.88
2022-11-30T08:06:07.243Z,101978.16
2022-11-30T08:08:34.113Z,101978.78
2022-11-30T08:11:00.420Z,101989.69
2022-11-30T08:13:26.741Z,101981.91
2022-11-30T08:15:53.065Z,101984.78
2022-11-30T08:18:19.381Z,101987.69
2022-11-30T08:20:50.283Z,101993.31
2022-11-30T08:23:16.647Z,101988.31
2022-11-30T08:25:42.957Z,101999.19
2022-11-30T08:28:09.511Z,102001.72
2022-11-30T08:30:36.036Z,101998.94
2022-11-30T08:33:02.645Z,101997.56
2022-11-30T08:35:28.948Z,102000.44
2022-11-30T08:37:55.258Z,102000.56
2022-11-30T08:40:21.578Z,101999.19
2022-11-30T08:42:47.885Z,102004.97
2022-11-30T08:45:14.221Z,102006.47
2022-11-30T08:47:40.531Z,102009.47
2022-11-30T08:50:06.941Z,102017.53
2022-11-30T08:52:33.264Z,102019.63
2022-11-30T08:54:59.568Z,102019.78
2022-11-30T08:57:26.741Z,102025.53
2022-11-30T08:59:53.056Z,102021.28
2022-11-30T09:02:19.624Z,102021.28
2022-11-30T09:04:47.489Z,102027.03
2022-11-30T09:07:13.821Z,102023.41
2022-11-30T09:09:40.164Z,102016.91
2022-11-30T09:12:06.829Z,102018.25
2022-11-30T09:14:33.149Z,102021.88
2022-11-30T09:16:59.474Z,102025.38
2022-11-30T09:19:25.803Z,102026.16
2022-11-30T09:21:52.762Z,102025.53
2022-11-30T09:24:19.659Z,102026.28
2022-11-30T09:26:46.008Z,102027.03
2022-11-30T09:29:12.330Z,102032.78
2022-11-30T09:31:38.643Z,102024.16
2022-11-30T09:34:05.261Z,102034.94
2022-11-30T09:36:32.945Z,102032.03
2022-11-30T09:38:59.256Z,102030.38
2022-11-30T09:41:28.547Z,102024.75
2022-11-30T09:44:10.008Z,102022.00
2022-11-30T09:46:54.953Z,102028.13
2022-11-30T09:49:25.015Z,102030.63
2022-11-30T09:51:52.493Z,102031.16
2022-11-30T09:54:20.622Z,102027.31
2022-11-30T09:56:46.929Z,102024.69
2022-11-30T09:59:20.263Z,102022.22
2022-11-30T10:01:51.993Z,102023.34
2022-11-30T10:04:23.652Z,102024.69
2022-11-30T10:07:08.657Z,102028.31
2022-11-30T10:09:38.803Z,102027.00
2022-11-30T10:12:06.044Z,102020.03
2022-11-30T10:14:48.946Z,102020.97
2022-11-30T10:17:15.441Z,102019.97
2022-11-30T10:19:46.529Z,102014.84
2022-11-30T10:22:13.744Z,102015.34
2022-11-30T10:24:43.043Z,102019.88
2022-11-30T10:27:21.824Z,102003.63
2022-11-30T10:29:48.145Z,102009.50
2022-11-30T10:32:21.280Z,102021.16
2022-11-30T10:34:54.519Z,102009.44
2022-11-30T10:37:34.149Z,102016.19
2022-11-30T10:40:04.810Z,102012.19
2022-11-30T10:42:43.149Z,102012.47
2022-11-30T10:45:10.838Z,102008.97
2022-11-30T10:47:38.598Z,102012.72
2022-11-30T10:50:04.975Z,102008.59
2022-11-30T10:52:32.177Z,102006.47
2022-11-30T10:55:04.183Z,102014.47
2022-11-30T10:57:31.636Z,102017.75
2022-11-30T10:59:58.459Z,102014.34
2022-11-30T11:02:34.939Z,102006.47
2022-11-30T11:05:08.306Z,102015.25
2022-11-30T11:07:34.686Z,102020.00
2022-11-30T11:10:01.788Z,102029.09
2022-11-30T11:12:28.318Z,102028.00
2022-11-30T11:15:07.812Z,102028.38
2022-11-30T11:17:34.198Z,102025.59
2022-11-30T11:20:00.513Z,102020.94
2022-11-30T11:22:27.299Z,102023.97
2022-11-30T11:24:54.017Z,102027.25
2022-11-30T11:27:20.281Z,102020.97
2022-11-30T11:29:46.824Z,102031.25
2022-11-30T11:32:13.321Z,102021.88
2022-11-30T11:34:39.650Z,102025.00
2022-11-30T11:37:07.463Z,102015.22
2022-11-30T11:39:33.841Z,102028.97
2022-11-30T11:42:00.363Z,102029.72
2022-11-30T11:44:27.229Z,102032.38
2022-11-30T11:46:55.894Z,102023.25
2022-11-30T11:49:23.170Z,102023.97
2022-11-30T11:51:49.505Z,102031.41
2022-11-30T11:54:27.811Z,102028.00
2022-11-30T11:56:54.704Z,102033.88
2022-11-30T11:59:39.944Z,102028.88
2022-11-30T12:02:21.212Z,102026.78
2022-11-30T12:04:50.861Z,102023.91
2022-11-30T12:07:19.860Z,102034.75
2022-11-30T12:09:57.401Z,102035.50
2022-11-30T12:12:23.718Z,102029.75
2022-11-30T12:14:50.039Z,102034.16
2022-11-30T12:17:35.365Z,102034.28
2022-11-30T12:20:01.603Z,102023.50
2022-11-30T12:22:44.141Z,102033.66
2022-11-30T12:25:29.233Z,102034.41
2022-11-30T12:28:16.512Z,102040.13
2022-11-30T12:30:48.013Z,102046.47
2022-11-30T12:33:25.311Z,102047.09
2022-11-30T12:35:56.637Z,102044.25
2022-11-30T12:38:31.609Z,102043.38
2022-11-30T12:41:04.394Z,102050.59
2022-11-30T12:43:36.557Z,102045.00
2022-11-30T12:46:06.199Z,102049.28
2022-11-30T12:48:38.640Z,102038.03
2022-11-30T12:51:08.362Z,102041.78
2022-11-30T12:53:53.601Z,102049.53
2022-11-30T12:56:30.707Z,102045.28
2022-11-30T12:59:00.802Z,102045.53
2022-11-30T13:01:34.038Z,102041.28
2022-11-30T13:04:04.761Z,102041.41
2022-11-30T13:06:35.229Z,102039.91
2022-11-30T13:09:04.578Z,102037.03
2022-11-30T13:11:33.557Z,102037.03
2022-11-30T13:13:59.981Z,102038.38
2022-11-30T13:16:26.409Z,102030.00
2022-11-30T13:18:52.855Z,102041.53
2022-11-30T13:21:21.505Z,102046.00
2022-11-30T13:24:03.794Z,102054.91
2022-11-30T13:26:32.247Z,102051.78
2022-11-30T13:29:04.001Z,102052.78
2022-11-30T13:31:36.099Z,102041.28
2022-11-30T13:34:02.527Z,102044.28
2022-11-30T13:36:31.736Z,102042.78
2022-11-30T13:39:13.248Z,102040.03
2022-11-30T13:41:43.581Z,102037.16
2022-11-30T13:44:28.929Z,102035.78
2022-11-30T13:46:55.305Z,102035.16
2022-11-30T13:49:22.769Z,102028.78
2022-11-30T13:52:07.028Z,102039.78
2022-11-30T13:54:51.266Z,102037.78
2022-11-30T13:57:26.956Z,102037.91
2022-11-30T13:59:53.708Z,102041.53
2022-11-30T14:02:43.139Z,102043.66
2022-11-30T14:05:18.599Z,102040.78
2022-11-30T14:07:50.765Z,102036.53
2022-11-30T14:10:27.347Z,102043.81
2022-11-30T14:12:57.574Z,102043.06
2022-11-30T14:15:31.815Z,102045.94
2022-11-30T14:17:58.182Z,102056.06
2022-11-30T14:20:25.157Z,102053.97
2022-11-30T14:22:51.461Z,102056.84
2022-11-30T14:25:18.262Z,102065.59
2022-11-30T14:27:44.579Z,102059.81
2022-11-30T14:30:17.931Z,102071.47
2022-11-30T14:32:44.898Z,102061.47
2022-11-30T14:35:15.924Z,102075.88
2022-11-30T14:37:43.497Z,102068.59
2022-11-30T14:40:18.447Z,102078.75
2022-11-30T14:42:52.061Z,102084.50
2022-11-30T14:45:25.469Z,102074.34
2022-11-30T14:47:52.949Z,102078.34
2022-11-30T14:50:23.732Z,102082.63
2022-11-30T14:52:56.210Z,102081.25
2022-11-30T14:55:25.467Z,102079.88
2022-11-30T14:58:10.705Z,102091.63
2022-11-30T15:00:40.617Z,102085.13
2022-11-30T15:03:15.856Z,102101.41
2022-11-30T15:05:42.185Z,102104.28
2022-11-30T15:08:09.323Z,102105.53
2022-11-30T15:10:36.062Z,102109.44
2022-11-30T15:13:02.461Z,102112.94
2022-11-30T15:15:29.616Z,102115.81
2022-11-30T15:18:10.455Z,102117.31
2022-11-30T15:20:38.120Z,102121.56
2022-11-30T15:23:04.438Z,102125.19
2022-11-30T15:25:35.017Z,102126.97
2022-11-30T15:28:01.437Z,102129.09
2022-11-30T15:30:27.982Z,102128.94
2022-11-30T15:32:54.388Z,102133.97
2022-11-30T15:35:21.873Z,102129.72
2022-11-30T15:37:48.217Z,102137.50
2022-11-30T15:40:14.688Z,102131.72
2022-11-30T15:42:41.002Z,102125.19
2022-11-30T15:45:09.970Z,102137.50
2022-11-30T15:47:36.536Z,102128.19
2022-11-30T15:50:03.307Z,102136.84
2022-11-30T15:52:30.086Z,102135.97
2022-11-30T15:55:02.142Z,102134.47
2022-11-30T15:57:48.336Z,102137.34
2022-11-30T16:00:14.574Z,102137.34
2022-11-30T16:02:40.942Z,102140.25
2022-11-30T16:05:13.786Z,102148.88
2022-11-30T16:07:49.928Z,102143.13
2022-11-30T16:10:16.272Z,102149.63
2022-11-30T16:12:42.816Z,102151.13
2022-11-30T16:15:25.016Z,102149.63
2022-11-30T16:17:51.395Z,102154.00
2022-11-30T16:20:17.759Z,102163.28
2022-11-30T16:22:44.475Z,102163.28
2022-11-30T16:25:14.611Z,102157.53
2022-11-30T16:27:41.277Z,102156.13
2022-11-30T16:30:07.808Z,102166.03
2022-11-30T16:32:34.122Z,102171.91
2022-11-30T16:35:01.663Z,102178.28
2022-11-30T16:37:28.025Z,102172.53
2022-11-30T16:39:54.353Z,102174.81
2022-11-30T16:42:20.705Z,102173.28
2022-11-30T16:44:47.025Z,102175.56
2022-11-30T16:47:13.348Z,102183.56
2022-11-30T16:49:39.688Z,102180.81
2022-11-30T16:52:06.000Z,102180.06
2022-11-30T16:54:32.420Z,102175.03
2022-11-30T16:56:58.774Z,102175.81
2022-11-30T16:59:25.080Z,102185.06
2022-11-30T17:01:53.005Z,102180.06
2022-11-30T17:04:20.281Z,102186.56
2022-11-30T17:06:50.227Z,102193.84
2022-11-30T17:09:17.552Z,102193.09
2022-11-30T17:11:43.867Z,102194.97
2022-11-30T17:14:10.844Z,102194.56
2022-11-30T17:16:37.262Z,102191.44
2022-11-30T17:19:03.633Z,102193.56
2022-11-30T17:21:33.145Z,102198.34
2022-11-30T17:23:59.486Z,102191.38
2022-11-30T17:26:26.109Z,102194.47
2022-11-30T17:28:52.458Z,102196.31
2022-11-30T17:31:18.880Z,102199.06
2022-11-30T17:33:48.330Z,102200.44
2022-11-30T17:36:15.230Z,102203.34
2022-11-30T17:38:43.869Z,102206.34
2022-11-30T17:41:15.636Z,102201.94
2022-11-30T17:43:45.089Z,102202.81
2022-11-30T17:46:12.174Z,102210.72
2022-11-30T17:48:38.500Z,102210.84
2022-11-30T17:51:04.937Z,102213.75
2022-11-30T17:53:31.284Z,102213.88
2022-11-30T17:56:01.356Z,102212.38
2022-11-30T17:58:32.547Z,102216.13
2022-11-30T18:01:00.627Z,102219.63
2022-11-30T18:03:27.062Z,102222.66
2022-11-30T18:05:53.387Z,102224.00
2022-11-30T18:08:19.708Z,102218.13
2022-11-30T18:10:47.627Z,102225.25
2022-11-30T18:13:14.349Z,102225.25
2022-11-30T18:15:40.719Z,102228.00
2022-11-30T18:18:07.047Z,102230.88
2022-11-30T18:20:33.393Z,102227.25
2022-11-30T18:22:59.706Z,102229.38
2022-11-30T18:25:26.054Z,102233.91
2022-11-30T18:27:52.687Z,102226.88
2022-11-30T18:30:19.004Z,102236.91
2022-11-30T18:32:45.321Z,102239.94
2022-11-30T18:35:11.646Z,102229.91
2022-11-30T18:37:37.959Z,102232.78
2022-11-30T18:40:04.402Z,102235.66
2022-11-30T18:42:30.706Z,102236.53
2022-11-30T18:44:57.094Z,102241.69
2022-11-30T18:47:23.421Z,102252.47
2022-11-30T18:49:49.779Z,102246.09
2022-11-30T18:52:16.094Z,102246.09
2022-11-30T18:54:42.432Z,102249.09
2022-11-30T18:57:08.886Z,102247.59
2022-11-30T18:59:35.237Z,102248.97
2022-11-30T19:02:01.615Z,102255.97
2022-11-30T19:04:28.036Z,102259.47
2022-11-30T19:06:54.339Z,102252.19
2022-11-30T19:09:22.391Z,102258.47
2022-11-30T19:11:48.704Z,102258.47
2022-11-30T19:14:15.598Z,102254.81
2022-11-30T19:16:42.070Z,102258.34
2022-11-30T19:19:08.880Z,102259.69
2022-11-30T19:21:35.212Z,102259.03
2022-11-30T19:24:01.541Z,102264.31
2022-11-30T19:26:28.417Z,102258.06
2022-11-30T19:28:55.099Z,102256.03
2022-11-30T19:31:21.457Z,102254.16
2022-11-30T19:33:48.530Z,102256.94
2022-11-30T19:36:18.772Z,102271.47
2022-11-30T19:38:45.169Z,102272.88
2022-11-30T19:41:11.968Z,102270.00
2022-11-30T19:43:38.291Z,102272.88
2022-11-30T19:46:08.168Z,102281.00
2022-11-30T19:48:34.657Z,102278.00
2022-11-30T19:51:03.725Z,102285.75
2022-11-30T19:53:31.890Z,102287.28
2022-11-30T19:55:58.200Z,102297.53
2022-11-30T19:58:24.536Z,102291.78
2022-11-30T20:00:50.876Z,102293.91
2022-11-30T20:03:17.246Z,102294.53
2022-11-30T20:05:49.978Z,102297.41
2022-11-30T20:08:16.369Z,102288.75
2022-11-30T20:10:42.696Z,102295.28
2022-11-30T20:13:09.008Z,102297.41
2022-11-30T20:15:37.323Z,102304.56
2022-11-30T20:18:03.645Z,102301.53
2022-11-30T20:20:30.016Z,102299.53
2022-11-30T20:22:56.825Z,102303.78
2022-11-30T20:25:23.207Z,102306.78
2022-11-30T20:27:49.958Z,102304.56
2022-11-30T20:30:16.549Z,102301.78
2022-11-30T20:32:43.284Z,102311.34
2022-11-30T20:35:09.924Z,102304.06
2022-11-30T20:37:36.553Z,102309.34
2022-11-30T20:40:05.738Z,102308.56
2022-11-30T20:42:32.079Z,102320.09
2022-11-30T20:44:58.415Z,102319.34
2022-11-30T20:47:24.736Z,102327.25
2022-11-30T20:49:51.082Z,102325.09
2022-11-30T20:52:17.399Z,102310.56
2022-11-30T20:54:43.719Z,102319.22
2022-11-30T20:57:10.033Z,102315.56
2022-11-30T20:59:36.355Z,102316.97
2022-11-30T21:02:02.785Z,102313.31
2022-11-30T21:04:29.159Z,102310.31
2022-11-30T21:06:55.596Z,102317.44
2022-11-30T21:09:21.913Z,102319.84
2022-11-30T21:11:48.244Z,102318.31
2022-11-30T21:14:14.615Z,102331.84
2022-11-30T21:16:40.956Z,102330.34
2022-11-30T21:19:07.313Z,102325.34
2022-11-30T21:21:34.189Z,102333.34
2022-11-30T21:24:01.312Z,102331.97
2022-11-30T21:26:31.875Z,102332.13
2022-11-30T21:28:59.104Z,102329.22
2022-11-30T21:31:25.526Z,102335.28
2022-11-30T21:33:53.645Z,102333.88
2022-11-30T21:36:20.321Z,102330.88
2022-11-30T21:38:46.712Z,102326.50
2022-11-30T21:41:13.040Z,102327.09
2022-11-30T21:43:39.465Z,102327.72
2022-11-30T21:46:06.605Z,102329.84
2022-11-30T21:48:34.631Z,102327.59
2022-11-30T21:51:01.845Z,102318.81
2022-11-30T21:53:28.219Z,102333.22
2022-11-30T21:55:55.937Z,102328.97
2022-11-30T21:58:22.500Z,102329.56
2022-11-30T22:00:55.797Z,102337.75
2022-11-30T22:03:22.219Z,102335.00
2022-11-30T22:06:07.620Z,102326.34
2022-11-30T22:08:33.932Z,102337.88
2022-11-30T22:11:01.145Z,102328.81
2022-11-30T22:13:27.781Z,102335.59
2022-11-30T22:15:58.151Z,102340.91
2022-11-30T22:18:24.518Z,102342.25
2022-11-30T22:20:50.849Z,102336.34
2022-11-30T22:23:17.177Z,102342.00
2022-11-30T22:25:43.519Z,102347.63
2022-11-30T22:28:09.841Z,102340.19
2022-11-30T22:30:36.172Z,102345.81
2022-11-30T22:33:02.484Z,102339.94
2022-11-30T22:35:28.810Z,102345.81
2022-11-30T22:37:55.181Z,102342.84
2022-11-30T22:40:21.517Z,102339.81
2022-11-30T22:42:47.842Z,102339.03
2022-11-30T22:45:14.198Z,102334.66
2022-11-30T22:47:40.525Z,102339.53
2022-11-30T22:50:07.325Z,102335.28
2022-11-30T22:53:01.526Z,102336.66
2022-11-30T22:55:20.119Z,102334.53
2022-11-30T22:57:46.660Z,102332.25
2022-11-30T23:00:13.169Z,102329.22
2022-11-30T23:02:39.518Z,102333.50
2022-11-30T23:05:06.111Z,102329.13
2022-11-30T23:07:32.549Z,102324.84
2022-11-30T23:09:58.989Z,102324.72
2022-11-30T23:12:57.443Z,102322.44
2022-11-30T23:15:11.604Z,102317.47
2022-11-30T23:17:37.962Z,102320.19
2022-11-30T23:20:04.586Z,102320.19
2022-11-30T23:22:31.078Z,102318.69
2022-11-30T23:24:57.389Z,102321.56
2022-11-30T23:27:23.703Z,102315.06
2022-11-30T23:29:50.296Z,102320.06
2022-11-30T23:32:16.786Z,102317.19
2022-11-30T23:34:46.885Z,102319.31
2022-11-30T23:37:15.722Z,102330.06
2022-11-30T23:39:42.100Z,102326.44
2022-11-30T23:42:08.436Z,102332.19
2022-11-30T23:44:35.166Z,102325.69
2022-11-30T23:47:01.591Z,102318.44
2022-11-30T23:49:27.930Z,102316.91
2022-11-30T23:51:54.255Z,102321.31
2022-11-30T23:54:20.576Z,102320.66
2022-11-30T23:56:46.917Z,102322.94
2022-11-30T23:59:13.254Z,102320.06
